createdAt,value
2022-11-21T00:00:03.205Z,14.55
2022-11-21T00:03:09.947Z,12.50
2022-11-21T00:06:15.054Z,13.60
2022-11-21T00:09:20.126Z,13.55
2022-11-21T00:12:27.858Z,14.57
2022-11-21T00:15:33.119Z,13.00
2022-11-21T00:18:38.630Z,14.10
2022-11-21T00:21:43.817Z,13.85
2022-11-21T00:24:53.926Z,13.90
2022-11-21T00:28:02.116Z,13.02
2022-11-21T00:31:07.773Z,14.40
2022-11-21T00:34:12.829Z,13.52
2022-11-21T00:37:18.078Z,13.93
2022-11-21T00:40:23.526Z,14.52
2022-11-21T00:43:31.447Z,14.13
2022-11-21T00:46:36.803Z,13.05
2022-11-21T00:49:41.981Z,13.38
2022-11-21T00:52:47.330Z,13.85
2022-11-21T00:55:52.505Z,13.27
2022-11-21T00:59:00.575Z,15.10
2022-11-21T01:02:05.632Z,15.18
2022-11-21T01:05:11.534Z,14.80
2022-11-21T01:08:16.660Z,13.85
2022-11-21T01:11:22.762Z,13.93
2022-11-21T01:14:30.524Z,14.35
2022-11-21T01:17:35.614Z,14.40
2022-11-21T01:20:42.079Z,13.40
2022-11-21T01:23:47.314Z,14.25
2022-11-21T01:26:54.099Z,13.88
2022-11-21T01:30:01.767Z,15.05
2022-11-21T01:33:08.973Z,13.48
2022-11-21T01:36:14.997Z,14.32
2022-11-21T01:39:20.439Z,14.45
2022-11-21T01:42:25.463Z,15.15
2022-11-21T01:45:45.786Z,13.77
2022-11-21T01:48:55.843Z,13.70
2022-11-21T01:52:04.709Z,16.48
2022-11-21T01:55:12.905Z,13.63
2022-11-21T01:58:18.494Z,15.13
2022-11-21T02:01:23.704Z,13.95
2022-11-21T02:04:33.951Z,14.13
2022-11-21T02:07:40.521Z,14.13
2022-11-21T02:10:49.272Z,15.13
2022-11-21T02:13:54.415Z,14.85
2022-11-21T02:17:00.889Z,14.68
2022-11-21T02:20:10.295Z,15.18
2022-11-21T02:23:19.629Z,13.70
2022-11-21T02:26:27.475Z,15.23
2022-11-21T02:29:33.569Z,14.65
2022-11-21T02:32:40.521Z,14.32
2022-11-21T02:35:45.826Z,14.82
2022-11-21T02:38:50.968Z,14.75
2022-11-21T02:42:02.564Z,13.65
2022-11-21T02:45:12.440Z,14.73
2022-11-21T02:48:17.844Z,15.05
2022-11-21T02:51:23.096Z,14.52
2022-11-21T02:54:28.311Z,14.55
2022-11-21T02:57:36.415Z,15.80
2022-11-21T03:00:42.915Z,13.38
2022-11-21T03:03:48.322Z,14.82
2022-11-21T03:06:53.420Z,13.70
2022-11-21T03:09:58.613Z,14.75
2022-11-21T03:13:06.467Z,14.93
2022-11-21T03:16:11.941Z,13.50
2022-11-21T03:19:16.977Z,15.50
2022-11-21T03:22:22.162Z,14.25
2022-11-21T03:25:27.362Z,14.80
2022-11-21T03:28:35.511Z,13.75
2022-11-21T03:31:40.606Z,16.10
2022-11-21T03:34:45.991Z,16.02
2022-11-21T03:37:51.357Z,15.55
2022-11-21T03:40:56.657Z,14.48
2022-11-21T03:44:05.136Z,14.60
2022-11-21T03:50:18.851Z,13.23
2022-11-21T03:53:24.225Z,13.50
2022-11-21T03:56:29.569Z,14.13
2022-11-21T03:59:37.411Z,12.35
2022-11-21T04:02:42.948Z,12.68
2022-11-21T04:05:48.089Z,13.77
2022-11-21T04:08:53.604Z,13.45
2022-11-21T04:11:58.644Z,13.60
2022-11-21T04:15:12.101Z,13.32
2022-11-21T04:18:18.819Z,12.98
2022-11-21T04:21:24.096Z,12.55
2022-11-21T04:24:29.436Z,13.82
2022-11-21T04:27:35.043Z,14.82
2022-11-21T04:30:42.705Z,13.68
2022-11-21T04:33:48.084Z,11.82
2022-11-21T04:36:53.429Z,13.45
2022-11-21T04:39:58.552Z,12.93
2022-11-21T04:43:03.590Z,13.68
2022-11-21T04:46:11.655Z,13.10
2022-11-21T04:49:17.056Z,12.43
2022-11-21T04:52:22.181Z,13.07
2022-11-21T04:55:28.993Z,13.30
2022-11-21T04:58:34.595Z,12.57
2022-11-21T05:01:43.372Z,12.75
2022-11-21T05:04:48.575Z,11.35
2022-11-21T05:07:53.679Z,13.25
2022-11-21T05:11:11.255Z,11.85
2022-11-21T05:14:16.501Z,11.90
2022-11-21T05:17:24.555Z,11.60
2022-11-21T05:20:32.315Z,12.25
2022-11-21T05:23:41.183Z,11.52
2022-11-21T05:26:46.264Z,10.88
2022-11-21T05:29:51.948Z,11.73
2022-11-21T05:32:59.712Z,12.40
2022-11-21T05:36:04.773Z,11.15
2022-11-21T05:39:09.787Z,12.10
2022-11-21T05:42:15.197Z,12.90
2022-11-21T05:45:17.874Z,13.18
2022-11-21T05:48:25.892Z,11.60
2022-11-21T05:51:31.127Z,12.63
2022-11-21T05:54:36.183Z,13.07
2022-11-21T05:57:41.468Z,10.75
2022-11-21T06:00:46.825Z,11.23
2022-11-21T06:03:51.850Z,10.40
2022-11-21T06:06:56.837Z,11.07
2022-11-21T06:10:02.058Z,10.93
2022-11-21T06:13:22.390Z,11.65
2022-11-21T06:16:27.524Z,10.88
2022-11-21T06:19:35.223Z,11.75
2022-11-21T06:22:40.226Z,10.88
2022-11-21T06:25:45.623Z,11.50
2022-11-21T06:28:50.876Z,10.98
2022-11-21T06:31:56.540Z,11.18
2022-11-21T06:35:04.215Z,11.63
2022-11-21T06:38:09.365Z,11.30
2022-11-21T06:41:15.413Z,12.48
2022-11-21T06:44:20.994Z,12.48
2022-11-21T06:47:26.205Z,11.45
2022-11-21T06:50:34.390Z,11.15
2022-11-21T06:53:39.381Z,11.80
2022-11-21T06:56:44.719Z,12.57
2022-11-21T06:59:50.024Z,12.90
2022-11-21T07:03:00.127Z,13.23
2022-11-21T07:06:10.537Z,11.77
2022-11-21T07:09:32.672Z,11.63
2022-11-21T07:12:51.294Z,12.85
2022-11-21T07:15:57.269Z,12.65
2022-11-21T07:19:03.222Z,12.27
2022-11-21T07:22:11.543Z,11.70
2022-11-21T07:25:16.635Z,13.15
2022-11-21T07:28:21.771Z,13.02
2022-11-21T07:31:26.990Z,13.30
2022-11-21T07:34:32.027Z,12.63
2022-11-21T07:37:43.118Z,12.57
2022-11-21T07:40:48.204Z,11.75
2022-11-21T07:43:53.440Z,13.48
2022-11-21T07:46:59.057Z,13.25
2022-11-21T07:50:08.003Z,11.98
2022-11-21T07:53:16.321Z,12.95
2022-11-21T07:56:21.356Z,12.02
2022-11-21T07:59:27.167Z,13.00
2022-11-21T08:02:32.797Z,13.68
2022-11-21T08:05:39.602Z,11.40
2022-11-21T08:08:48.425Z,12.52
2022-11-21T08:11:53.604Z,11.60
2022-11-21T08:14:58.772Z,11.57
2022-11-21T08:18:11.952Z,11.73
2022-11-21T08:21:19.809Z,11.63
2022-11-21T08:27:32.855Z,9.43
2022-11-21T08:30:38.809Z,10.73
2022-11-21T08:33:43.784Z,10.30
2022-11-21T08:36:49.222Z,10.38
2022-11-21T08:39:54.424Z,10.77
2022-11-21T08:43:03.043Z,11.13
2022-11-21T08:46:08.640Z,9.93
2022-11-21T08:49:13.837Z,10.07
2022-11-21T08:52:18.965Z,9.77
2022-11-21T08:55:24.655Z,10.60
2022-11-21T08:58:32.614Z,10.88
2022-11-21T09:01:37.718Z,10.88
2022-11-21T09:04:43.231Z,10.57
2022-11-21T09:07:48.707Z,11.35
2022-11-21T09:10:54.185Z,10.40
2022-11-21T09:14:14.264Z,11.48
2022-11-21T09:17:32.142Z,10.48
2022-11-21T09:20:41.134Z,10.90
2022-11-21T09:23:47.039Z,9.55
2022-11-21T09:26:52.268Z,10.18
2022-11-21T09:30:00.350Z,8.93
2022-11-21T09:33:05.822Z,9.82
2022-11-21T09:36:10.988Z,9.32
2022-11-21T09:39:17.657Z,8.80
2022-11-21T09:42:32.188Z,9.77
2022-11-21T09:45:45.351Z,9.13
2022-11-21T09:48:53.061Z,9.73
2022-11-21T09:51:58.919Z,10.15
2022-11-21T09:55:06.491Z,10.73
2022-11-21T09:58:17.958Z,10.23
2022-11-21T10:01:25.983Z,9.43
2022-11-21T10:04:31.743Z,10.32
2022-11-21T10:07:38.282Z,9.63
2022-11-21T10:10:51.541Z,9.48
2022-11-21T10:14:01.940Z,10.10
2022-11-21T10:17:16.348Z,10.07
2022-11-21T10:20:35.778Z,9.32
2022-11-21T10:24:08.628Z,10.60
2022-11-21T10:27:17.328Z,9.63
2022-11-21T10:30:23.114Z,10.73
2022-11-21T10:33:34.846Z,9.70
2022-11-21T10:36:40.957Z,11.00
2022-11-21T10:39:47.550Z,10.73
2022-11-21T10:42:54.935Z,10.95
2022-11-21T10:45:57.532Z,10.60
2022-11-21T10:49:08.376Z,9.65
2022-11-21T10:52:15.813Z,10.80
2022-11-21T10:55:21.360Z,12.13
2022-11-21T10:58:36.031Z,10.30
2022-11-21T11:01:41.103Z,11.30
2022-11-21T11:04:52.450Z,9.82
2022-11-21T11:08:08.260Z,10.32
2022-11-21T11:11:18.027Z,10.95
2022-11-21T11:14:31.343Z,9.98
2022-11-21T11:17:37.266Z,9.48
2022-11-21T11:20:45.837Z,10.10
2022-11-21T11:23:51.912Z,10.48
2022-11-21T11:27:02.923Z,10.07
2022-11-21T11:30:09.580Z,11.27
2022-11-21T11:33:29.550Z,11.88
2022-11-21T11:36:40.182Z,10.50
2022-11-21T11:39:50.653Z,10.95
2022-11-21T11:43:25.436Z,10.18
2022-11-21T11:46:49.118Z,10.13
2022-11-21T11:50:07.777Z,10.48
2022-11-21T11:53:18.590Z,9.73
2022-11-21T11:56:25.725Z,10.40
2022-11-21T11:59:33.060Z,10.07
2022-11-21T12:02:44.814Z,10.13
2022-11-21T12:05:58.063Z,10.35
2022-11-21T12:09:09.240Z,9.25
2022-11-21T12:12:18.036Z,9.93
2022-11-21T12:15:37.125Z,10.90
2022-11-21T12:18:47.404Z,10.25
2022-11-21T12:21:52.733Z,9.65
2022-11-21T12:25:00.548Z,9.10
2022-11-21T12:28:09.873Z,9.75
2022-11-21T12:31:17.903Z,9.07
2022-11-21T12:34:30.782Z,10.55
2022-11-21T12:37:40.015Z,10.15
2022-11-21T12:40:51.704Z,10.48
2022-11-21T12:44:01.744Z,9.73
2022-11-21T12:47:15.475Z,9.23
2022-11-21T12:50:37.339Z,9.77
2022-11-21T12:53:59.834Z,10.43
2022-11-21T12:57:12.561Z,10.85
2022-11-21T13:00:20.930Z,9.48
2022-11-21T13:03:47.919Z,9.43
2022-11-21T13:06:54.574Z,9.00
2022-11-21T13:10:01.020Z,10.43
2022-11-21T13:13:11.150Z,9.68
2022-11-21T13:16:37.108Z,9.27
2022-11-21T13:19:47.173Z,8.93
2022-11-21T13:22:59.679Z,9.23
2022-11-21T13:26:04.674Z,8.82
2022-11-21T13:29:16.316Z,9.93
2022-11-21T13:32:39.256Z,10.35
2022-11-21T13:36:09.407Z,9.63
2022-11-21T13:39:35.312Z,10.27
2022-11-21T13:43:32.091Z,10.18
2022-11-21T13:46:55.562Z,10.23
2022-11-21T13:50:08.441Z,10.50
2022-11-21T13:53:19.436Z,9.20
2022-11-21T13:56:29.202Z,9.80
2022-11-21T13:59:42.343Z,9.88
2022-11-21T14:02:54.537Z,9.00
2022-11-21T14:06:12.030Z,7.72
2022-11-21T14:09:21.610Z,8.73
2022-11-21T14:12:34.446Z,8.65
2022-11-21T14:15:44.440Z,8.82
2022-11-21T14:18:50.115Z,9.40
2022-11-21T14:21:58.667Z,9.70
2022-11-21T14:25:04.369Z,10.23
2022-11-21T14:28:11.568Z,9.60
2022-11-21T14:31:17.362Z,10.25
2022-11-21T14:34:29.449Z,9.45
2022-11-21T14:37:37.746Z,10.43
2022-11-21T14:40:42.840Z,10.05
2022-11-21T14:43:48.237Z,9.98
2022-11-21T14:46:54.107Z,9.52
2022-11-21T14:50:07.124Z,8.98
2022-11-21T14:53:15.944Z,9.68
2022-11-21T14:56:24.773Z,9.23
2022-11-21T14:59:31.725Z,9.77
2022-11-21T15:02:37.673Z,9.65
2022-11-21T15:10:25.497Z,9.27
2022-11-21T15:12:45.919Z,9.02
2022-11-21T15:15:52.144Z,8.95
2022-11-21T15:18:57.207Z,9.13
2022-11-21T15:22:04.486Z,9.38
2022-11-21T15:25:18.672Z,10.17
2022-11-21T15:28:23.825Z,9.68
2022-11-21T15:31:29.671Z,9.43
2022-11-21T15:34:36.438Z,9.95
2022-11-21T15:37:42.110Z,10.25
2022-11-21T15:41:02.076Z,9.30
2022-11-21T15:44:25.378Z,10.32
2022-11-21T15:47:33.422Z,9.43
2022-11-21T15:50:38.658Z,9.60
2022-11-21T15:53:44.033Z,10.02
2022-11-21T15:56:49.752Z,10.38
2022-11-21T15:59:54.810Z,11.98
2022-11-21T16:03:02.667Z,10.85
2022-11-21T16:06:07.931Z,10.45
2022-11-21T16:09:13.491Z,10.48
2022-11-21T16:12:18.521Z,10.23
2022-11-21T16:15:24.154Z,11.43
2022-11-21T16:18:32.343Z,10.05
2022-11-21T16:21:37.519Z,10.13
2022-11-21T16:24:42.830Z,10.35
2022-11-21T16:27:48.385Z,11.27
2022-11-21T16:30:53.471Z,10.88
2022-11-21T16:34:01.653Z,10.02
2022-11-21T16:37:07.675Z,10.27
2022-11-21T16:40:13.525Z,10.23
2022-11-21T16:43:18.699Z,10.75
2022-11-21T16:46:24.432Z,10.75
2022-11-21T16:49:32.679Z,10.40
2022-11-21T16:52:38.529Z,12.10
2022-11-21T16:55:43.670Z,10.90
2022-11-21T16:58:49.005Z,11.00
2022-11-21T17:01:54.356Z,11.25
2022-11-21T17:05:02.047Z,11.20
2022-11-21T17:08:08.601Z,11.75
2022-11-21T17:11:18.201Z,10.95
2022-11-21T17:14:23.606Z,10.63
2022-11-21T17:17:29.270Z,11.88
2022-11-21T17:20:37.035Z,11.13
2022-11-21T17:23:43.286Z,10.90
2022-11-21T17:26:48.323Z,11.60
2022-11-21T17:29:54.663Z,12.93
2022-11-21T17:32:59.869Z,12.95
2022-11-21T17:36:08.615Z,11.98
2022-11-21T17:39:13.944Z,11.77
2022-11-21T17:42:19.225Z,11.57
2022-11-21T17:45:24.230Z,11.63
2022-11-21T17:48:29.381Z,12.80
2022-11-21T17:51:38.114Z,11.45
2022-11-21T17:54:43.574Z,12.65
2022-11-21T17:57:48.634Z,12.05
2022-11-21T18:00:57.126Z,12.23
2022-11-21T18:04:02.940Z,13.02
2022-11-21T18:07:10.872Z,11.82
2022-11-21T18:10:41.494Z,12.48
2022-11-21T18:13:41.860Z,11.80
2022-11-21T18:16:52.837Z,11.27
2022-11-21T18:19:58.988Z,12.23
2022-11-21T18:23:06.787Z,11.65
2022-11-21T18:26:14.523Z,13.50
2022-11-21T18:29:35.729Z,12.02
2022-11-21T18:32:41.705Z,13.18
2022-11-21T18:35:47.219Z,11.27
2022-11-21T18:39:02.927Z,12.15
2022-11-21T18:42:11.346Z,10.32
2022-11-21T18:45:16.440Z,10.90
2022-11-21T18:48:23.294Z,11.82
2022-11-21T18:51:29.755Z,11.90
2022-11-21T18:54:37.624Z,12.13
2022-11-21T18:57:42.940Z,11.73
2022-11-21T19:00:47.924Z,11.02
2022-11-21T19:03:54.114Z,11.50
2022-11-21T19:06:59.248Z,11.10
2022-11-21T19:10:35.676Z,10.95
2022-11-21T19:16:37.662Z,13.05
2022-11-21T19:19:42.695Z,11.40
2022-11-21T19:22:48.142Z,11.70
2022-11-21T19:25:55.998Z,11.57
2022-11-21T19:29:01.804Z,13.23
2022-11-21T19:32:07.410Z,12.85
2022-11-21T19:35:13.058Z,11.80
2022-11-21T19:38:18.319Z,11.75
2022-11-21T19:41:27.011Z,12.13
2022-11-21T19:47:36.803Z,11.82
2022-11-21T19:50:47.705Z,11.15
2022-11-21T19:53:55.204Z,12.20
2022-11-21T19:57:03.104Z,12.85
2022-11-21T20:00:09.064Z,12.57
2022-11-21T20:03:15.175Z,12.18
2022-11-21T20:06:21.203Z,11.18
2022-11-21T20:09:31.977Z,11.75
2022-11-21T20:12:42.167Z,11.75
2022-11-21T20:15:47.572Z,11.57
2022-11-21T20:18:53.502Z,11.35
2022-11-21T20:21:58.973Z,10.77
2022-11-21T20:25:04.285Z,11.85
2022-11-21T20:28:12.149Z,10.82
2022-11-21T20:31:18.334Z,10.93
2022-11-21T20:34:23.977Z,11.77
2022-11-21T20:37:29.185Z,11.73
2022-11-21T20:40:34.602Z,12.18
2022-11-21T20:44:32.434Z,11.73
2022-11-21T20:47:07.678Z,12.00
2022-11-21T20:50:31.424Z,12.63
2022-11-21T20:53:51.915Z,13.15
2022-11-21T20:56:58.709Z,11.73
2022-11-21T21:00:06.867Z,11.90
2022-11-21T21:03:13.626Z,11.80
2022-11-21T21:06:18.941Z,12.57
2022-11-21T21:09:23.953Z,12.70
2022-11-21T21:12:31.653Z,12.90
2022-11-21T21:15:39.385Z,11.80
2022-11-21T21:18:50.793Z,12.98
2022-11-21T21:21:57.316Z,12.85
2022-11-21T21:25:02.440Z,12.93
2022-11-21T21:28:08.413Z,12.98
2022-11-21T21:31:17.656Z,12.30
2022-11-21T21:34:23.344Z,13.15
2022-11-21T21:37:28.518Z,12.75
2022-11-21T21:40:33.741Z,12.38
2022-11-21T21:43:39.276Z,12.57
2022-11-21T21:46:47.228Z,14.05
2022-11-21T21:49:52.283Z,9.77
2022-11-21T21:52:57.535Z,12.05
2022-11-21T21:56:03.158Z,12.38
2022-11-21T21:59:08.628Z,13.07
2022-11-21T22:02:16.853Z,12.90
2022-11-21T22:05:22.421Z,13.23
2022-11-21T22:08:27.424Z,13.23
2022-11-21T22:11:33.926Z,12.68
2022-11-21T22:14:38.997Z,12.07
2022-11-21T22:17:46.816Z,12.95
2022-11-21T22:20:51.863Z,12.25
2022-11-21T22:27:22.446Z,12.18
2022-11-21T22:30:27.777Z,12.82
2022-11-21T22:33:36.050Z,12.32
2022-11-21T22:36:41.741Z,11.98
2022-11-21T22:39:47.168Z,11.20
2022-11-21T22:42:52.403Z,10.98
2022-11-21T22:45:57.766Z,13.02
2022-11-21T22:49:05.682Z,12.13
2022-11-21T22:52:10.957Z,13.13
2022-11-21T22:55:16.540Z,11.52
2022-11-21T22:58:21.583Z,10.95
2022-11-21T23:01:28.232Z,11.25
2022-11-21T23:04:36.021Z,12.60
2022-11-21T23:07:41.404Z,11.10
2022-11-21T23:10:46.842Z,12.07
2022-11-21T23:13:52.544Z,10.23
2022-11-21T23:16:57.897Z,11.55
2022-11-21T23:20:05.992Z,11.15
2022-11-21T23:23:11.137Z,11.77
2022-11-21T23:26:17.026Z,11.18
2022-11-21T23:29:22.146Z,11.73
2022-11-21T23:32:27.873Z,10.88
2022-11-21T23:35:35.626Z,11.35
2022-11-21T23:38:40.881Z,11.63
2022-11-21T23:41:46.192Z,11.63
2022-11-21T23:44:51.553Z,11.85
2022-11-21T23:47:56.836Z,11.07
2022-11-21T23:51:05.172Z,10.88
2022-11-21T23:54:10.337Z,10.85
2022-11-21T23:57:15.698Z,12.70
